sensor_id;sensor_type;location;lat;lon;timestamp;P1;durP1;ratioP1;P2;durP2;ratioP2
6452;SDS011;3259;51.080;13.712;2022-08-20T00:01:44;12.52;;;10.98;;
6452;SDS011;3259;51.080;13.712;2022-08-20T00:04:34;13.18;;;10.85;;
6452;SDS011;3259;51.080;13.712;2022-08-20T00:07:25;15.27;;;10.80;;
6452;SDS011;3259;51.080;13.712;2022-08-20T00:10:13;13.82;;;11.27;;
6452;SDS011;3259;51.080;13.712;2022-08-20T00:13:04;16.15;;;12.35;;
6452;SDS011;3259;51.080;13.712;2022-08-20T00:15:54;14.48;;;11.88;;
6452;SDS011;3259;51.080;13.712;2022-08-20T00:18:43;14.70;;;11.75;;
6452;SDS011;3259;51.080;13.712;2022-08-20T00:21:32;13.38;;;11.30;;
6452;SDS011;3259;51.080;13.712;2022-08-20T00:24:21;14.05;;;12.00;;
6452;SDS011;3259;51.080;13.712;2022-08-20T00:27:10;14.25;;;12.75;;
6452;SDS011;3259;51.080;13.712;2022-08-20T00:30:00;20.35;;;12.30;;
6452;SDS011;3259;51.080;13.712;2022-08-20T00:32:49;14.68;;;11.93;;
6452;SDS011;3259;51.080;13.712;2022-08-20T00:35:41;14.00;;;12.10;;
6452;SDS011;3259;51.080;13.712;2022-08-20T00:38:32;16.10;;;12.27;;
6452;SDS011;3259;51.080;13.712;2022-08-20T00:41:22;17.45;;;13.13;;
6452;SDS011;3259;51.080;13.712;2022-08-20T00:44:14;15.43;;;12.95;;
6452;SDS011;3259;51.080;13.712;2022-08-20T00:47:05;15.23;;;13.50;;
6452;SDS011;3259;51.080;13.712;2022-08-20T00:49:54;16.90;;;13.52;;
6452;SDS011;3259;51.080;13.712;2022-08-20T00:52:44;15.32;;;11.68;;
6452;SDS011;3259;51.080;13.712;2022-08-20T00:55:35;15.73;;;13.18;;
6452;SDS011;3259;51.080;13.712;2022-08-20T00:58:24;18.92;;;13.27;;
6452;SDS011;3259;51.080;13.712;2022-08-20T01:01:13;15.77;;;12.90;;
6452;SDS011;3259;51.080;13.712;2022-08-20T01:04:03;21.73;;;15.32;;
6452;SDS011;3259;51.080;13.712;2022-08-20T01:06:52;14.32;;;12.80;;
6452;SDS011;3259;51.080;13.712;2022-08-20T01:09:41;16.65;;;14.13;;
6452;SDS011;3259;51.080;13.712;2022-08-20T01:12:45;18.42;;;13.65;;
6452;SDS011;3259;51.080;13.712;2022-08-20T01:15:42;17.83;;;14.43;;
6452;SDS011;3259;51.080;13.712;2022-08-20T01:18:31;17.30;;;13.80;;
6452;SDS011;3259;51.080;13.712;2022-08-20T01:21:21;18.63;;;14.45;;
6452;SDS011;3259;51.080;13.712;2022-08-20T01:24:13;18.42;;;13.85;;
6452;SDS011;3259;51.080;13.712;2022-08-20T01:27:07;18.85;;;14.57;;
6452;SDS011;3259;51.080;13.712;2022-08-20T01:29:57;20.20;;;14.38;;
6452;SDS011;3259;51.080;13.712;2022-08-20T01:32:51;19.05;;;14.88;;
6452;SDS011;3259;51.080;13.712;2022-08-20T01:35:40;18.33;;;14.20;;
6452;SDS011;3259;51.080;13.712;2022-08-20T01:38:30;19.52;;;15.30;;
6452;SDS011;3259;51.080;13.712;2022-08-20T01:41:21;20.13;;;15.82;;
6452;SDS011;3259;51.080;13.712;2022-08-20T01:44:18;24.00;;;15.85;;
6452;SDS011;3259;51.080;13.712;2022-08-20T01:47:11;21.23;;;15.82;;
6452;SDS011;3259;51.080;13.712;2022-08-20T01:50:03;21.15;;;16.25;;
6452;SDS011;3259;51.080;13.712;2022-08-20T01:53:00;20.85;;;15.25;;
6452;SDS011;3259;51.080;13.712;2022-08-20T01:55:51;18.63;;;15.68;;
6452;SDS011;3259;51.080;13.712;2022-08-20T01:58:40;19.17;;;15.30;;
6452;SDS011;3259;51.080;13.712;2022-08-20T02:01:34;21.08;;;16.30;;
6452;SDS011;3259;51.080;13.712;2022-08-20T02:04:33;20.52;;;16.73;;
6452;SDS011;3259;51.080;13.712;2022-08-20T02:07:22;21.98;;;16.30;;
6452;SDS011;3259;51.080;13.712;2022-08-20T02:10:11;19.20;;;16.30;;
6452;SDS011;3259;51.080;13.712;2022-08-20T02:13:01;21.08;;;16.77;;
6452;SDS011;3259;51.080;13.712;2022-08-20T02:15:51;20.52;;;15.65;;
6452;SDS011;3259;51.080;13.712;2022-08-20T02:18:42;18.60;;;15.68;;
6452;SDS011;3259;51.080;13.712;2022-08-20T02:21:31;20.40;;;16.75;;
6452;SDS011;3259;51.080;13.712;2022-08-20T02:24:20;19.42;;;16.10;;
6452;SDS011;3259;51.080;13.712;2022-08-20T02:27:09;24.30;;;17.15;;
6452;SDS011;3259;51.080;13.712;2022-08-20T02:29:58;22.92;;;18.05;;
6452;SDS011;3259;51.080;13.712;2022-08-20T02:32:48;21.70;;;16.45;;
6452;SDS011;3259;51.080;13.712;2022-08-20T02:35:44;24.88;;;19.17;;
6452;SDS011;3259;51.080;13.712;2022-08-20T02:38:33;22.02;;;17.60;;
6452;SDS011;3259;51.080;13.712;2022-08-20T02:41:24;22.67;;;17.77;;
6452;SDS011;3259;51.080;13.712;2022-08-20T02:44:13;22.92;;;19.13;;
6452;SDS011;3259;51.080;13.712;2022-08-20T02:47:04;22.73;;;18.23;;
6452;SDS011;3259;51.080;13.712;2022-08-20T02:49:53;23.17;;;18.95;;
6452;SDS011;3259;51.080;13.712;2022-08-20T02:52:44;24.95;;;18.60;;
6452;SDS011;3259;51.080;13.712;2022-08-20T02:55:37;26.15;;;18.13;;
6452;SDS011;3259;51.080;13.712;2022-08-20T02:58:26;21.83;;;18.15;;
6452;SDS011;3259;51.080;13.712;2022-08-20T03:01:15;25.98;;;19.02;;
6452;SDS011;3259;51.080;13.712;2022-08-20T03:04:04;19.90;;;17.30;;
6452;SDS011;3259;51.080;13.712;2022-08-20T03:06:53;20.02;;;17.30;;
6452;SDS011;3259;51.080;13.712;2022-08-20T03:09:43;20.75;;;17.02;;
6452;SDS011;3259;51.080;13.712;2022-08-20T03:12:31;20.33;;;16.63;;
6452;SDS011;3259;51.080;13.712;2022-08-20T03:15:20;21.50;;;17.67;;
6452;SDS011;3259;51.080;13.712;2022-08-20T03:18:09;23.17;;;17.25;;
6452;SDS011;3259;51.080;13.712;2022-08-20T03:20:58;22.67;;;18.50;;
6452;SDS011;3259;51.080;13.712;2022-08-20T03:23:47;22.23;;;16.52;;
6452;SDS011;3259;51.080;13.712;2022-08-20T03:26:37;19.10;;;17.05;;
6452;SDS011;3259;51.080;13.712;2022-08-20T03:29:26;22.77;;;17.88;;
6452;SDS011;3259;51.080;13.712;2022-08-20T03:32:14;22.38;;;17.15;;
6452;SDS011;3259;51.080;13.712;2022-08-20T03:35:03;19.88;;;16.80;;
6452;SDS011;3259;51.080;13.712;2022-08-20T03:37:53;22.15;;;18.30;;
6452;SDS011;3259;51.080;13.712;2022-08-20T03:40:42;20.80;;;17.35;;
6452;SDS011;3259;51.080;13.712;2022-08-20T03:43:33;22.23;;;17.15;;
6452;SDS011;3259;51.080;13.712;2022-08-20T03:46:23;21.13;;;16.58;;
6452;SDS011;3259;51.080;13.712;2022-08-20T03:49:12;23.10;;;17.60;;
6452;SDS011;3259;51.080;13.712;2022-08-20T03:52:02;18.63;;;15.02;;
6452;SDS011;3259;51.080;13.712;2022-08-20T03:54:51;19.15;;;15.80;;
6452;SDS011;3259;51.080;13.712;2022-08-20T03:57:42;17.42;;;15.00;;
6452;SDS011;3259;51.080;13.712;2022-08-20T04:00:35;20.15;;;15.38;;
6452;SDS011;3259;51.080;13.712;2022-08-20T04:03:26;17.30;;;14.18;;
6452;SDS011;3259;51.080;13.712;2022-08-20T04:06:14;18.60;;;15.10;;
6452;SDS011;3259;51.080;13.712;2022-08-20T04:09:04;16.38;;;13.82;;
6452;SDS011;3259;51.080;13.712;2022-08-20T04:11:55;14.55;;;12.32;;
6452;SDS011;3259;51.080;13.712;2022-08-20T04:14:45;16.13;;;13.05;;
6452;SDS011;3259;51.080;13.712;2022-08-20T04:17:37;13.02;;;11.70;;
6452;SDS011;3259;51.080;13.712;2022-08-20T04:20:27;14.07;;;11.27;;
6452;SDS011;3259;51.080;13.712;2022-08-20T04:23:16;10.80;;;9.65;;
6452;SDS011;3259;51.080;13.712;2022-08-20T04:26:04;11.52;;;10.32;;
6452;SDS011;3259;51.080;13.712;2022-08-20T04:28:53;9.75;;;8.75;;
6452;SDS011;3259;51.080;13.712;2022-08-20T04:31:41;8.88;;;8.00;;
6452;SDS011;3259;51.080;13.712;2022-08-20T04:34:31;9.50;;;8.40;;
6452;SDS011;3259;51.080;13.712;2022-08-20T04:37:21;7.95;;;7.15;;
6452;SDS011;3259;51.080;13.712;2022-08-20T04:40:11;11.15;;;7.13;;
6452;SDS011;3259;51.080;13.712;2022-08-20T04:43:20;10.10;;;6.70;;
6452;SDS011;3259;51.080;13.712;2022-08-20T04:46:11;6.72;;;6.05;;
6452;SDS011;3259;51.080;13.712;2022-08-20T04:48:59;7.65;;;6.22;;
6452;SDS011;3259;51.080;13.712;2022-08-20T04:51:51;6.13;;;5.53;;
6452;SDS011;3259;51.080;13.712;2022-08-20T04:54:40;6.72;;;4.53;;
6452;SDS011;3259;51.080;13.712;2022-08-20T04:57:29;5.80;;;5.13;;
6452;SDS011;3259;51.080;13.712;2022-08-20T05:00:17;6.32;;;5.10;;
6452;SDS011;3259;51.080;13.712;2022-08-20T05:03:06;5.13;;;4.72;;
6452;SDS011;3259;51.080;13.712;2022-08-20T05:05:55;6.15;;;4.82;;
6452;SDS011;3259;51.080;13.712;2022-08-20T05:08:45;6.25;;;4.85;;
6452;SDS011;3259;51.080;13.712;2022-08-20T05:11:34;5.15;;;4.70;;
6452;SDS011;3259;51.080;13.712;2022-08-20T05:14:23;5.22;;;4.28;;
6452;SDS011;3259;51.080;13.712;2022-08-20T05:17:14;8.38;;;5.25;;
6452;SDS011;3259;51.080;13.712;2022-08-20T05:20:10;5.10;;;4.70;;
6452;SDS011;3259;51.080;13.712;2022-08-20T05:23:02;5.75;;;5.15;;
6452;SDS011;3259;51.080;13.712;2022-08-20T05:25:51;6.85;;;6.15;;
6452;SDS011;3259;51.080;13.712;2022-08-20T05:28:41;7.93;;;6.63;;
6452;SDS011;3259;51.080;13.712;2022-08-20T05:31:43;12.30;;;7.65;;
6452;SDS011;3259;51.080;13.712;2022-08-20T05:34:32;9.88;;;7.35;;
6452;SDS011;3259;51.080;13.712;2022-08-20T05:37:20;8.52;;;7.60;;
6452;SDS011;3259;51.080;13.712;2022-08-20T05:40:12;8.48;;;7.68;;
6452;SDS011;3259;51.080;13.712;2022-08-20T05:43:03;11.13;;;8.88;;
6452;SDS011;3259;51.080;13.712;2022-08-20T05:45:51;9.93;;;8.48;;
6452;SDS011;3259;51.080;13.712;2022-08-20T05:48:42;9.98;;;8.93;;
6452;SDS011;3259;51.080;13.712;2022-08-20T05:51:30;10.25;;;8.98;;
6452;SDS011;3259;51.080;13.712;2022-08-20T05:54:22;9.43;;;7.85;;
6452;SDS011;3259;51.080;13.712;2022-08-20T05:57:11;10.43;;;8.63;;
6452;SDS011;3259;51.080;13.712;2022-08-20T06:00:03;9.07;;;8.18;;
6452;SDS011;3259;51.080;13.712;2022-08-20T06:02:53;10.88;;;9.30;;
6452;SDS011;3259;51.080;13.712;2022-08-20T06:05:59;9.02;;;8.07;;
6452;SDS011;3259;51.080;13.712;2022-08-20T06:08:49;10.48;;;7.47;;
6452;SDS011;3259;51.080;13.712;2022-08-20T06:11:37;9.32;;;8.35;;
6452;SDS011;3259;51.080;13.712;2022-08-20T06:14:26;10.07;;;8.10;;
6452;SDS011;3259;51.080;13.712;2022-08-20T06:17:17;9.13;;;8.23;;
6452;SDS011;3259;51.080;13.712;2022-08-20T06:20:08;10.10;;;8.45;;
6452;SDS011;3259;51.080;13.712;2022-08-20T06:22:59;9.95;;;8.93;;
6452;SDS011;3259;51.080;13.712;2022-08-20T06:25:48;11.20;;;8.88;;
6452;SDS011;3259;51.080;13.712;2022-08-20T06:28:37;9.63;;;8.30;;
6452;SDS011;3259;51.080;13.712;2022-08-20T06:31:26;9.88;;;8.63;;
6452;SDS011;3259;51.080;13.712;2022-08-20T06:34:16;10.35;;;8.88;;
6452;SDS011;3259;51.080;13.712;2022-08-20T06:37:12;9.25;;;8.30;;
6452;SDS011;3259;51.080;13.712;2022-08-20T06:40:03;10.20;;;9.10;;
6452;SDS011;3259;51.080;13.712;2022-08-20T06:42:54;11.88;;;10.15;;
6452;SDS011;3259;51.080;13.712;2022-08-20T06:45:43;12.35;;;11.02;;
6452;SDS011;3259;51.080;13.712;2022-08-20T06:48:32;14.90;;;10.60;;
6452;SDS011;3259;51.080;13.712;2022-08-20T06:51:22;13.77;;;11.50;;
6452;SDS011;3259;51.080;13.712;2022-08-20T06:54:10;21.45;;;11.95;;
6452;SDS011;3259;51.080;13.712;2022-08-20T06:56:59;18.77;;;12.80;;
6452;SDS011;3259;51.080;13.712;2022-08-20T06:59:48;17.73;;;11.00;;
6452;SDS011;3259;51.080;13.712;2022-08-20T07:02:39;14.50;;;12.13;;
6452;SDS011;3259;51.080;13.712;2022-08-20T07:05:29;15.10;;;13.10;;
6452;SDS011;3259;51.080;13.712;2022-08-20T07:08:20;18.27;;;13.48;;
6452;SDS011;3259;51.080;13.712;2022-08-20T07:11:09;16.42;;;13.05;;
6452;SDS011;3259;51.080;13.712;2022-08-20T07:13:58;17.65;;;13.90;;
6452;SDS011;3259;51.080;13.712;2022-08-20T07:16:46;19.02;;;13.50;;
6452;SDS011;3259;51.080;13.712;2022-08-20T07:19:36;15.68;;;12.35;;
6452;SDS011;3259;51.080;13.712;2022-08-20T07:22:25;16.10;;;13.68;;
6452;SDS011;3259;51.080;13.712;2022-08-20T07:25:16;16.58;;;13.10;;
6452;SDS011;3259;51.080;13.712;2022-08-20T07:28:10;21.02;;;13.80;;
6452;SDS011;3259;51.080;13.712;2022-08-20T07:31:00;18.10;;;14.85;;
6452;SDS011;3259;51.080;13.712;2022-08-20T07:34:06;21.60;;;15.85;;
6452;SDS011;3259;51.080;13.712;2022-08-20T07:36:57;21.45;;;14.85;;
6452;SDS011;3259;51.080;13.712;2022-08-20T07:39:47;17.02;;;14.73;;
6452;SDS011;3259;51.080;13.712;2022-08-20T07:42:37;18.42;;;14.57;;
6452;SDS011;3259;51.080;13.712;2022-08-20T07:45:26;17.27;;;14.55;;
6452;SDS011;3259;51.080;13.712;2022-08-20T07:48:15;16.52;;;13.55;;
6452;SDS011;3259;51.080;13.712;2022-08-20T07:51:18;15.48;;;12.88;;
6452;SDS011;3259;51.080;13.712;2022-08-20T07:54:08;17.15;;;13.52;;
6452;SDS011;3259;51.080;13.712;2022-08-20T07:56:58;17.85;;;14.43;;
6452;SDS011;3259;51.080;13.712;2022-08-20T07:59:50;17.58;;;14.75;;
6452;SDS011;3259;51.080;13.712;2022-08-20T08:02:38;21.23;;;14.95;;
6452;SDS011;3259;51.080;13.712;2022-08-20T08:05:27;20.38;;;14.75;;
6452;SDS011;3259;51.080;13.712;2022-08-20T08:08:18;19.33;;;15.52;;
6452;SDS011;3259;51.080;13.712;2022-08-20T08:11:08;26.90;;;17.05;;
6452;SDS011;3259;51.080;13.712;2022-08-20T08:13:58;19.70;;;15.55;;
6452;SDS011;3259;51.080;13.712;2022-08-20T08:16:48;22.13;;;16.67;;
6452;SDS011;3259;51.080;13.712;2022-08-20T08:19:42;20.35;;;17.00;;
6452;SDS011;3259;51.080;13.712;2022-08-20T08:22:34;23.10;;;18.00;;
6452;SDS011;3259;51.080;13.712;2022-08-20T08:25:22;23.17;;;17.60;;
6452;SDS011;3259;51.080;13.712;2022-08-20T08:28:11;19.88;;;16.25;;
6452;SDS011;3259;51.080;13.712;2022-08-20T08:31:00;25.38;;;17.98;;
6452;SDS011;3259;51.080;13.712;2022-08-20T08:33:50;22.60;;;16.88;;
6452;SDS011;3259;51.080;13.712;2022-08-20T08:36:38;24.52;;;17.27;;
6452;SDS011;3259;51.080;13.712;2022-08-20T08:39:30;23.38;;;17.17;;
6452;SDS011;3259;51.080;13.712;2022-08-20T08:42:22;22.13;;;18.42;;
6452;SDS011;3259;51.080;13.712;2022-08-20T08:45:12;24.75;;;19.08;;
6452;SDS011;3259;51.080;13.712;2022-08-20T08:48:03;20.85;;;17.60;;
6452;SDS011;3259;51.080;13.712;2022-08-20T08:50:54;22.30;;;17.58;;
6452;SDS011;3259;51.080;13.712;2022-08-20T08:53:44;24.92;;;17.55;;
6452;SDS011;3259;51.080;13.712;2022-08-20T08:56:36;21.10;;;16.70;;
6452;SDS011;3259;51.080;13.712;2022-08-20T08:59:26;22.52;;;17.23;;
6452;SDS011;3259;51.080;13.712;2022-08-20T09:02:36;19.10;;;15.63;;
6452;SDS011;3259;51.080;13.712;2022-08-20T09:05:30;33.70;;;16.80;;
6452;SDS011;3259;51.080;13.712;2022-08-20T09:08:24;20.88;;;16.20;;
6452;SDS011;3259;51.080;13.712;2022-08-20T09:11:16;23.60;;;17.25;;
6452;SDS011;3259;51.080;13.712;2022-08-20T09:17:41;22.67;;;17.48;;
6452;SDS011;3259;51.080;13.712;2022-08-20T09:20:30;31.17;;;17.02;;
6452;SDS011;3259;51.080;13.712;2022-08-20T09:23:18;22.27;;;16.42;;
6452;SDS011;3259;51.080;13.712;2022-08-20T09:26:08;21.70;;;16.35;;
6452;SDS011;3259;51.080;13.712;2022-08-20T09:28:59;23.80;;;16.73;;
6452;SDS011;3259;51.080;13.712;2022-08-20T09:31:48;21.05;;;15.88;;
6452;SDS011;3259;51.080;13.712;2022-08-20T09:34:38;20.52;;;16.45;;
6452;SDS011;3259;51.080;13.712;2022-08-20T09:37:28;22.08;;;15.50;;
6452;SDS011;3259;51.080;13.712;2022-08-20T09:40:23;24.55;;;17.25;;
6452;SDS011;3259;51.080;13.712;2022-08-20T09:43:13;21.95;;;16.10;;
6452;SDS011;3259;51.080;13.712;2022-08-20T09:46:01;19.42;;;15.98;;
6452;SDS011;3259;51.080;13.712;2022-08-20T09:48:50;20.88;;;15.88;;
6452;SDS011;3259;51.080;13.712;2022-08-20T09:51:38;20.52;;;16.05;;
6452;SDS011;3259;51.080;13.712;2022-08-20T09:54:27;21.42;;;16.10;;
6452;SDS011;3259;51.080;13.712;2022-08-20T09:57:16;20.23;;;15.15;;
6452;SDS011;3259;51.080;13.712;2022-08-20T10:00:07;19.63;;;15.88;;
6452;SDS011;3259;51.080;13.712;2022-08-20T10:02:57;23.92;;;15.07;;
6452;SDS011;3259;51.080;13.712;2022-08-20T10:05:47;16.00;;;13.50;;
6452;SDS011;3259;51.080;13.712;2022-08-20T10:08:36;20.77;;;15.60;;
6452;SDS011;3259;51.080;13.712;2022-08-20T10:11:24;19.38;;;16.08;;
6452;SDS011;3259;51.080;13.712;2022-08-20T10:14:15;23.30;;;17.30;;
6452;SDS011;3259;51.080;13.712;2022-08-20T10:17:05;21.63;;;16.35;;
6452;SDS011;3259;51.080;13.712;2022-08-20T10:19:54;20.42;;;15.80;;
6452;SDS011;3259;51.080;13.712;2022-08-20T10:22:42;21.80;;;16.38;;
6452;SDS011;3259;51.080;13.712;2022-08-20T10:25:31;17.95;;;15.80;;
6452;SDS011;3259;51.080;13.712;2022-08-20T10:28:19;20.60;;;15.85;;
6452;SDS011;3259;51.080;13.712;2022-08-20T10:31:09;18.50;;;15.10;;
6452;SDS011;3259;51.080;13.712;2022-08-20T10:34:00;15.77;;;13.88;;
6452;SDS011;3259;51.080;13.712;2022-08-20T10:36:48;16.92;;;14.25;;
6452;SDS011;3259;51.080;13.712;2022-08-20T10:39:37;18.77;;;15.00;;
6452;SDS011;3259;51.080;13.712;2022-08-20T10:42:25;19.80;;;15.95;;
6452;SDS011;3259;51.080;13.712;2022-08-20T10:45:14;21.92;;;16.45;;
6452;SDS011;3259;51.080;13.712;2022-08-20T10:48:03;18.73;;;15.55;;
6452;SDS011;3259;51.080;13.712;2022-08-20T10:50:56;17.73;;;13.85;;
6452;SDS011;3259;51.080;13.712;2022-08-20T10:53:45;17.38;;;15.32;;
6452;SDS011;3259;51.080;13.712;2022-08-20T10:56:33;18.58;;;16.58;;
6452;SDS011;3259;51.080;13.712;2022-08-20T10:59:22;18.92;;;15.68;;
6452;SDS011;3259;51.080;13.712;2022-08-20T11:02:10;19.17;;;16.00;;
6452;SDS011;3259;51.080;13.712;2022-08-20T11:04:59;23.33;;;16.05;;
6452;SDS011;3259;51.080;13.712;2022-08-20T11:07:49;19.15;;;14.65;;
6452;SDS011;3259;51.080;13.712;2022-08-20T11:10:42;17.90;;;15.63;;
6452;SDS011;3259;51.080;13.712;2022-08-20T11:13:30;16.52;;;14.90;;
6452;SDS011;3259;51.080;13.712;2022-08-20T11:16:19;17.55;;;15.10;;
6452;SDS011;3259;51.080;13.712;2022-08-20T11:19:08;21.08;;;15.35;;
6452;SDS011;3259;51.080;13.712;2022-08-20T11:21:56;23.95;;;16.65;;
6452;SDS011;3259;51.080;13.712;2022-08-20T11:24:46;18.90;;;16.23;;
6452;SDS011;3259;51.080;13.712;2022-08-20T11:27:36;22.38;;;16.70;;
6452;SDS011;3259;51.080;13.712;2022-08-20T11:30:27;20.33;;;17.05;;
6452;SDS011;3259;51.080;13.712;2022-08-20T11:33:16;20.70;;;16.80;;
6452;SDS011;3259;51.080;13.712;2022-08-20T11:36:08;20.10;;;16.05;;
6452;SDS011;3259;51.080;13.712;2022-08-20T11:38:57;16.27;;;13.93;;
6452;SDS011;3259;51.080;13.712;2022-08-20T11:41:47;19.25;;;15.40;;
6452;SDS011;3259;51.080;13.712;2022-08-20T11:44:40;32.05;;;18.60;;
6452;SDS011;3259;51.080;13.712;2022-08-20T11:47:29;28.95;;;16.90;;
6452;SDS011;3259;51.080;13.712;2022-08-20T11:50:19;27.38;;;16.80;;
6452;SDS011;3259;51.080;13.712;2022-08-20T11:53:08;22.50;;;17.95;;
6452;SDS011;3259;51.080;13.712;2022-08-20T11:55:57;24.35;;;17.02;;
6452;SDS011;3259;51.080;13.712;2022-08-20T11:58:47;20.65;;;16.88;;
6452;SDS011;3259;51.080;13.712;2022-08-20T12:01:36;21.48;;;18.00;;
6452;SDS011;3259;51.080;13.712;2022-08-20T12:04:24;18.75;;;15.98;;
6452;SDS011;3259;51.080;13.712;2022-08-20T12:07:16;22.35;;;16.55;;
6452;SDS011;3259;51.080;13.712;2022-08-20T12:10:06;19.77;;;16.63;;
6452;SDS011;3259;51.080;13.712;2022-08-20T12:12:56;19.05;;;15.35;;
6452;SDS011;3259;51.080;13.712;2022-08-20T12:15:46;22.10;;;16.83;;
6452;SDS011;3259;51.080;13.712;2022-08-20T12:18:35;22.48;;;17.27;;
6452;SDS011;3259;51.080;13.712;2022-08-20T12:21:24;19.27;;;17.20;;
6452;SDS011;3259;51.080;13.712;2022-08-20T12:24:17;26.92;;;17.98;;
6452;SDS011;3259;51.080;13.712;2022-08-20T12:27:09;19.88;;;16.98;;
6452;SDS011;3259;51.080;13.712;2022-08-20T12:30:00;20.02;;;15.80;;
6452;SDS011;3259;51.080;13.712;2022-08-20T12:32:53;19.33;;;15.65;;
6452;SDS011;3259;51.080;13.712;2022-08-20T12:35:41;18.55;;;15.93;;
6452;SDS011;3259;51.080;13.712;2022-08-20T12:38:30;17.60;;;15.50;;
6452;SDS011;3259;51.080;13.712;2022-08-20T12:41:19;18.67;;;15.18;;
6452;SDS011;3259;51.080;13.712;2022-08-20T12:44:08;18.45;;;15.18;;
6452;SDS011;3259;51.080;13.712;2022-08-20T12:47:05;16.98;;;14.90;;
6452;SDS011;3259;51.080;13.712;2022-08-20T12:49:57;22.00;;;15.60;;
6452;SDS011;3259;51.080;13.712;2022-08-20T12:52:47;17.35;;;14.88;;
6452;SDS011;3259;51.080;13.712;2022-08-20T12:55:36;16.23;;;14.15;;
6452;SDS011;3259;51.080;13.712;2022-08-20T12:58:25;18.98;;;15.35;;
6452;SDS011;3259;51.080;13.712;2022-08-20T13:01:14;20.58;;;15.82;;
6452;SDS011;3259;51.080;13.712;2022-08-20T13:04:02;17.83;;;14.40;;
6452;SDS011;3259;51.080;13.712;2022-08-20T13:06:52;17.50;;;15.23;;
6452;SDS011;3259;51.080;13.712;2022-08-20T13:09:47;18.42;;;15.70;;
6452;SDS011;3259;51.080;13.712;2022-08-20T13:12:36;17.80;;;15.48;;
6452;SDS011;3259;51.080;13.712;2022-08-20T13:15:24;16.67;;;14.70;;
6452;SDS011;3259;51.080;13.712;2022-08-20T13:18:13;17.27;;;14.57;;
6452;SDS011;3259;51.080;13.712;2022-08-20T13:21:01;18.83;;;15.55;;
6452;SDS011;3259;51.080;13.712;2022-08-20T13:23:51;16.80;;;14.93;;
6452;SDS011;3259;51.080;13.712;2022-08-20T13:26:40;18.05;;;15.30;;
6452;SDS011;3259;51.080;13.712;2022-08-20T13:29:29;19.80;;;14.75;;
6452;SDS011;3259;51.080;13.712;2022-08-20T13:32:17;18.48;;;15.18;;
6452;SDS011;3259;51.080;13.712;2022-08-20T13:35:07;17.85;;;15.30;;
6452;SDS011;3259;51.080;13.712;2022-08-20T13:37:57;18.88;;;14.75;;
6452;SDS011;3259;51.080;13.712;2022-08-20T13:40:46;15.68;;;14.00;;
6452;SDS011;3259;51.080;13.712;2022-08-20T13:43:35;15.32;;;13.73;;
6452;SDS011;3259;51.080;13.712;2022-08-20T13:46:24;17.58;;;14.68;;
6452;SDS011;3259;51.080;13.712;2022-08-20T13:49:13;16.52;;;14.63;;
6452;SDS011;3259;51.080;13.712;2022-08-20T13:52:01;18.73;;;15.38;;
6452;SDS011;3259;51.080;13.712;2022-08-20T13:54:51;16.33;;;14.15;;
6452;SDS011;3259;51.080;13.712;2022-08-20T13:57:41;16.13;;;13.48;;
6452;SDS011;3259;51.080;13.712;2022-08-20T14:00:31;17.23;;;12.95;;
6452;SDS011;3259;51.080;13.712;2022-08-20T14:03:20;15.93;;;13.65;;
6452;SDS011;3259;51.080;13.712;2022-08-20T14:06:11;19.23;;;13.60;;
6452;SDS011;3259;51.080;13.712;2022-08-20T14:08:59;13.93;;;12.25;;
6452;SDS011;3259;51.080;13.712;2022-08-20T14:11:48;15.93;;;13.73;;
6452;SDS011;3259;51.080;13.712;2022-08-20T14:14:39;14.68;;;13.18;;
6452;SDS011;3259;51.080;13.712;2022-08-20T14:17:28;18.00;;;14.60;;
6452;SDS011;3259;51.080;13.712;2022-08-20T14:20:19;16.77;;;12.45;;
6452;SDS011;3259;51.080;13.712;2022-08-20T14:23:09;12.05;;;10.63;;
6452;SDS011;3259;51.080;13.712;2022-08-20T14:25:58;10.90;;;9.13;;
6452;SDS011;3259;51.080;13.712;2022-08-20T14:28:46;13.20;;;8.68;;
6452;SDS011;3259;51.080;13.712;2022-08-20T14:31:36;9.45;;;8.25;;
6452;SDS011;3259;51.080;13.712;2022-08-20T14:34:25;9.10;;;7.82;;
6452;SDS011;3259;51.080;13.712;2022-08-20T14:37:14;9.10;;;8.18;;
6452;SDS011;3259;51.080;13.712;2022-08-20T14:40:05;10.15;;;8.35;;
6452;SDS011;3259;51.080;13.712;2022-08-20T14:42:56;8.48;;;7.57;;
6452;SDS011;3259;51.080;13.712;2022-08-20T14:45:45;9.70;;;7.20;;
6452;SDS011;3259;51.080;13.712;2022-08-20T14:48:35;8.93;;;6.75;;
6452;SDS011;3259;51.080;13.712;2022-08-20T14:51:23;8.25;;;6.60;;
6452;SDS011;3259;51.080;13.712;2022-08-20T14:54:12;7.10;;;6.10;;
6452;SDS011;3259;51.080;13.712;2022-08-20T14:57:00;6.38;;;5.78;;
6452;SDS011;3259;51.080;13.712;2022-08-20T14:59:50;6.53;;;5.82;;
6452;SDS011;3259;51.080;13.712;2022-08-20T15:02:40;8.80;;;5.90;;
6452;SDS011;3259;51.080;13.712;2022-08-20T15:05:30;11.20;;;6.20;;
6452;SDS011;3259;51.080;13.712;2022-08-20T15:08:18;6.85;;;6.15;;
6452;SDS011;3259;51.080;13.712;2022-08-20T15:11:13;7.22;;;6.53;;
6452;SDS011;3259;51.080;13.712;2022-08-20T15:14:02;8.60;;;6.38;;
6452;SDS011;3259;51.080;13.712;2022-08-20T15:16:51;10.20;;;7.10;;
6452;SDS011;3259;51.080;13.712;2022-08-20T15:19:40;8.15;;;7.03;;
6452;SDS011;3259;51.080;13.712;2022-08-20T15:22:30;7.85;;;6.85;;
6452;SDS011;3259;51.080;13.712;2022-08-20T15:25:20;9.98;;;6.50;;
6452;SDS011;3259;51.080;13.712;2022-08-20T15:28:10;8.52;;;7.40;;
6452;SDS011;3259;51.080;13.712;2022-08-20T15:30:59;8.05;;;7.25;;
6452;SDS011;3259;51.080;13.712;2022-08-20T15:33:47;9.98;;;6.88;;
6452;SDS011;3259;51.080;13.712;2022-08-20T15:36:36;8.77;;;7.88;;
6452;SDS011;3259;51.080;13.712;2022-08-20T15:39:28;8.50;;;7.68;;
6452;SDS011;3259;51.080;13.712;2022-08-20T15:42:17;9.88;;;7.30;;
6452;SDS011;3259;51.080;13.712;2022-08-20T15:45:06;10.80;;;7.32;;
6452;SDS011;3259;51.080;13.712;2022-08-20T15:47:59;8.80;;;8.00;;
6452;SDS011;3259;51.080;13.712;2022-08-20T15:50:58;10.20;;;8.55;;
6452;SDS011;3259;51.080;13.712;2022-08-20T15:53:58;9.85;;;8.15;;
6452;SDS011;3259;51.080;13.712;2022-08-20T15:56:59;11.88;;;9.50;;
6452;SDS011;3259;51.080;13.712;2022-08-20T15:59:55;11.55;;;9.48;;
6452;SDS011;3259;51.080;13.712;2022-08-20T16:03:11;10.70;;;8.88;;
6452;SDS011;3259;51.080;13.712;2022-08-20T16:06:08;10.43;;;9.32;;
6452;SDS011;3259;51.080;13.712;2022-08-20T16:09:02;10.65;;;9.50;;
6452;SDS011;3259;51.080;13.712;2022-08-20T16:11:59;10.68;;;9.68;;
6452;SDS011;3259;51.080;13.712;2022-08-20T16:14:52;12.00;;;9.18;;
6452;SDS011;3259;51.080;13.712;2022-08-20T16:17:45;10.77;;;9.77;;
6452;SDS011;3259;51.080;13.712;2022-08-20T16:20:38;12.52;;;10.30;;
6452;SDS011;3259;51.080;13.712;2022-08-20T16:23:31;12.45;;;11.10;;
6452;SDS011;3259;51.080;13.712;2022-08-20T16:29:41;16.52;;;11.27;;
6452;SDS011;3259;51.080;13.712;2022-08-20T16:32:35;14.95;;;11.15;;
6452;SDS011;3259;51.080;13.712;2022-08-20T16:35:27;16.00;;;13.25;;
6452;SDS011;3259;51.080;13.712;2022-08-20T16:38:18;14.75;;;11.55;;
6452;SDS011;3259;51.080;13.712;2022-08-20T16:41:11;14.05;;;11.73;;
6452;SDS011;3259;51.080;13.712;2022-08-20T16:44:03;11.55;;;10.35;;
6452;SDS011;3259;51.080;13.712;2022-08-20T16:46:57;13.07;;;10.88;;
6452;SDS011;3259;51.080;13.712;2022-08-20T16:50:00;11.90;;;10.07;;
6452;SDS011;3259;51.080;13.712;2022-08-20T16:52:50;12.45;;;11.07;;
6452;SDS011;3259;51.080;13.712;2022-08-20T16:55:38;12.73;;;10.45;;
6452;SDS011;3259;51.080;13.712;2022-08-20T16:58:27;12.65;;;9.55;;
6452;SDS011;3259;51.080;13.712;2022-08-20T17:01:16;9.98;;;9.07;;
6452;SDS011;3259;51.080;13.712;2022-08-20T17:04:19;10.43;;;9.05;;
6452;SDS011;3259;51.080;13.712;2022-08-20T17:07:09;10.10;;;9.10;;